createdAt,value
2017-12-23T00:02:26.125Z,6.47
2017-12-23T00:04:53.740Z,7.90
2017-12-23T00:07:21.383Z,5.70
2017-12-23T00:09:49.003Z,4.77
2017-12-23T00:12:16.645Z,2.90
2017-12-23T00:14:44.266Z,3.67
2017-12-23T00:17:11.879Z,2.90
2017-12-23T00:19:39.462Z,3.17
2017-12-23T00:22:07.828Z,4.63
2017-12-23T00:24:35.394Z,7.73
2017-12-23T00:27:03.024Z,7.80
2017-12-23T00:29:30.595Z,8.90
2017-12-23T00:31:58.190Z,6.03
2017-12-23T00:34:32.346Z,6.27
2017-12-23T00:37:00.395Z,6.30
2017-12-23T00:39:27.970Z,6.60
2017-12-23T00:41:55.564Z,8.07
2017-12-23T00:44:23.142Z,5.40
2017-12-23T00:46:50.738Z,9.67
2017-12-23T00:49:18.336Z,9.43
2017-12-23T00:51:45.930Z,7.20
2017-12-23T00:54:13.542Z,8.00
2017-12-23T00:56:41.172Z,10.70
2017-12-23T00:59:08.749Z,7.20
2017-12-23T01:01:36.323Z,4.30
2017-12-23T01:04:03.934Z,5.20
2017-12-23T01:06:31.519Z,9.63
2017-12-23T01:08:59.119Z,15.13
2017-12-23T01:11:27.462Z,5.53
2017-12-23T01:13:55.052Z,3.63
2017-12-23T01:16:22.635Z,12.87
2017-12-23T01:18:50.991Z,8.67
2017-12-23T01:21:18.575Z,48.73
2017-12-23T01:23:46.175Z,12.73
2017-12-23T01:26:13.752Z,13.00
2017-12-23T01:28:41.346Z,8.17
2017-12-23T01:31:08.919Z,9.13
2017-12-23T01:33:37.287Z,7.50
2017-12-23T01:36:05.626Z,9.10
2017-12-23T01:38:33.217Z,9.90
2017-12-23T01:41:00.790Z,8.13
2017-12-23T01:43:29.141Z,7.43
2017-12-23T01:45:56.709Z,7.00
2017-12-23T01:48:34.089Z,8.07
2017-12-23T01:51:01.669Z,6.83
2017-12-23T01:53:29.272Z,5.80
2017-12-23T01:55:56.839Z,9.40
2017-12-23T01:58:24.434Z,6.83
2017-12-23T02:00:52.011Z,10.50
2017-12-23T02:03:19.945Z,7.13
2017-12-23T02:05:47.567Z,5.40
2017-12-23T02:08:15.138Z,8.73
2017-12-23T02:10:42.711Z,11.03
2017-12-23T02:13:10.303Z,7.70
2017-12-23T02:15:37.878Z,9.57
2017-12-23T02:18:06.238Z,7.77
2017-12-23T02:20:33.814Z,13.40
2017-12-23T02:23:02.287Z,8.00
2017-12-23T02:25:29.862Z,7.47
2017-12-23T02:27:58.227Z,5.50
2017-12-23T02:30:26.625Z,9.70
2017-12-23T02:32:54.198Z,11.73
2017-12-23T02:35:21.796Z,12.40
2017-12-23T02:37:49.365Z,11.07
2017-12-23T02:40:16.962Z,9.40
2017-12-23T02:42:44.531Z,9.00
2017-12-23T02:45:12.132Z,12.37
2017-12-23T02:47:39.712Z,8.30
2017-12-23T02:50:07.306Z,6.53
2017-12-23T02:52:34.890Z,6.40
2017-12-23T02:55:02.513Z,9.67
2017-12-23T02:57:30.102Z,8.53
2017-12-23T02:59:58.466Z,8.43
2017-12-23T03:02:26.046Z,6.43
2017-12-23T03:04:53.638Z,6.77
2017-12-23T03:07:21.215Z,8.63
2017-12-23T03:09:49.578Z,8.57
2017-12-23T03:12:17.147Z,10.37
2017-12-23T03:14:44.747Z,8.93
2017-12-23T03:17:12.314Z,12.50
2017-12-23T03:19:39.906Z,13.67
2017-12-23T03:22:07.478Z,12.63
2017-12-23T03:24:35.070Z,14.80
2017-12-23T03:27:02.642Z,14.90
2017-12-23T03:29:30.233Z,16.17
2017-12-23T03:31:57.802Z,16.73
2017-12-23T03:34:25.403Z,17.83
2017-12-23T03:36:52.970Z,13.30
2017-12-23T03:39:20.539Z,12.70
2017-12-23T03:41:48.901Z,13.17
2017-12-23T03:44:16.475Z,16.77
2017-12-23T03:46:44.082Z,16.50
2017-12-23T03:49:11.660Z,12.87
2017-12-23T03:51:40.033Z,16.53
2017-12-23T03:54:08.369Z,12.53
2017-12-23T03:56:35.973Z,17.27
2017-12-23T03:59:03.553Z,13.53
2017-12-23T04:01:31.154Z,16.20
2017-12-23T04:03:58.756Z,9.57
2017-12-23T04:06:27.098Z,14.47
2017-12-23T04:08:54.669Z,10.70
2017-12-23T04:11:22.258Z,17.00
2017-12-23T04:13:49.831Z,14.83
2017-12-23T04:16:17.427Z,11.70
2017-12-23T04:18:44.998Z,15.63
2017-12-23T04:21:13.298Z,16.67
2017-12-23T04:23:40.874Z,12.10
2017-12-23T04:26:08.465Z,9.20
2017-12-23T04:28:36.030Z,11.70
2017-12-23T04:31:03.628Z,11.37
2017-12-23T04:33:31.966Z,13.17
2017-12-23T04:35:59.559Z,14.83
2017-12-23T04:38:27.126Z,17.33
2017-12-23T04:40:54.726Z,18.10
2017-12-23T04:43:22.298Z,14.67
2017-12-23T04:45:49.895Z,15.33
2017-12-23T04:48:18.232Z,10.90
2017-12-23T04:50:45.845Z,10.70
2017-12-23T04:53:13.414Z,14.20
2017-12-23T04:55:40.983Z,13.27
2017-12-23T04:58:08.579Z,15.03
2017-12-23T05:00:36.158Z,14.87
2017-12-23T05:03:04.518Z,11.30
2017-12-23T05:05:32.096Z,15.40
2017-12-23T05:07:59.727Z,23.53
2017-12-23T05:10:27.310Z,16.27
2017-12-23T05:12:54.906Z,15.00
2017-12-23T05:15:22.473Z,18.77
2017-12-23T05:17:50.064Z,15.03
2017-12-23T05:20:17.638Z,16.03
2017-12-23T05:22:45.236Z,15.33
2017-12-23T05:25:12.807Z,16.20
2017-12-23T05:27:40.403Z,21.40
2017-12-23T05:30:07.981Z,19.70
2017-12-23T05:32:35.581Z,21.63
2017-12-23T05:35:03.158Z,20.20
2017-12-23T05:37:30.749Z,19.63
2017-12-23T05:39:58.322Z,21.40
2017-12-23T05:42:25.919Z,19.10
2017-12-23T05:44:53.514Z,16.30
2017-12-23T05:47:21.109Z,18.43
2017-12-23T05:49:48.690Z,23.43
2017-12-23T05:52:16.286Z,18.20
2017-12-23T05:54:43.874Z,23.10
2017-12-23T05:57:12.230Z,19.00
2017-12-23T05:59:39.810Z,21.80
2017-12-23T06:02:07.420Z,27.57
2017-12-23T06:04:35.016Z,19.10
2017-12-23T06:07:02.591Z,25.77
2017-12-23T06:09:30.967Z,21.90
2017-12-23T06:11:58.542Z,21.23
2017-12-23T06:14:26.147Z,19.43
2017-12-23T06:16:53.718Z,20.30
2017-12-23T06:19:21.314Z,20.50
2017-12-23T06:21:48.894Z,19.33
2017-12-23T06:24:16.492Z,20.13
2017-12-23T06:26:44.070Z,20.23
2017-12-23T06:29:11.675Z,16.10
2017-12-23T06:31:39.247Z,18.20
2017-12-23T06:34:06.851Z,27.13
2017-12-23T06:36:34.430Z,19.10
2017-12-23T06:39:02.848Z,27.67
2017-12-23T06:41:30.417Z,20.27
2017-12-23T06:43:58.081Z,22.20
2017-12-23T06:46:25.653Z,20.17
2017-12-23T06:48:53.250Z,21.57
2017-12-23T06:51:20.826Z,23.03
2017-12-23T06:53:48.431Z,22.77
2017-12-23T06:56:16.004Z,24.20
2017-12-23T06:58:43.618Z,27.40
2017-12-23T07:01:11.200Z,24.90
2017-12-23T07:03:38.803Z,25.00
2017-12-23T07:06:06.387Z,24.77
2017-12-23T07:08:34.016Z,28.90
2017-12-23T07:11:02.391Z,28.93
2017-12-23T07:13:30.760Z,23.90
2017-12-23T07:15:58.339Z,22.47
2017-12-23T07:18:26.707Z,19.70
2017-12-23T07:20:54.303Z,23.37
2017-12-23T07:23:21.886Z,21.43
2017-12-23T07:25:49.486Z,25.10
2017-12-23T07:28:17.825Z,25.57
2017-12-23T07:30:45.431Z,22.53
2017-12-23T07:33:13.776Z,27.03
2017-12-23T07:35:41.378Z,20.40
2017-12-23T07:38:08.960Z,19.90
2017-12-23T07:40:36.561Z,25.57
2017-12-23T07:43:04.142Z,23.07
2017-12-23T07:45:31.754Z,18.00
2017-12-23T07:47:59.335Z,19.93
2017-12-23T07:50:26.938Z,25.93
2017-12-23T07:52:54.555Z,18.80
2017-12-23T07:55:22.163Z,22.27
2017-12-23T07:57:49.804Z,21.10
2017-12-23T08:00:17.395Z,21.00
2017-12-23T08:02:44.976Z,19.37
2017-12-23T08:05:12.583Z,24.10
2017-12-23T08:07:40.930Z,24.03
2017-12-23T08:10:08.538Z,19.80
2017-12-23T08:12:36.114Z,19.00
2017-12-23T08:15:03.718Z,18.50
2017-12-23T08:17:31.302Z,16.47
2017-12-23T08:19:59.694Z,19.83
2017-12-23T08:22:27.273Z,19.87
2017-12-23T08:24:54.866Z,18.43
2017-12-23T08:27:22.450Z,21.37
2017-12-23T08:29:50.817Z,23.83
2017-12-23T08:32:18.399Z,22.10
2017-12-23T08:34:46.742Z,19.90
2017-12-23T08:37:14.835Z,19.07
2017-12-23T08:39:42.418Z,24.97
2017-12-23T08:42:10.027Z,19.00
2017-12-23T08:44:37.613Z,20.10
2017-12-23T08:47:05.219Z,18.20
2017-12-23T08:49:32.802Z,16.20
2017-12-23T08:52:00.397Z,13.00
2017-12-23T08:54:28.828Z,15.53
2017-12-23T08:56:56.422Z,17.17
2017-12-23T08:59:24.004Z,16.00
2017-12-23T09:01:51.606Z,24.60
2017-12-23T09:04:19.177Z,15.20
2017-12-23T09:06:46.771Z,13.47
2017-12-23T09:09:14.359Z,15.73
2017-12-23T09:11:41.960Z,15.80
2017-12-23T09:14:09.539Z,12.73
2017-12-23T09:16:37.149Z,15.23
2017-12-23T09:19:04.723Z,14.87
2017-12-23T09:21:32.339Z,16.50
2017-12-23T09:24:00.674Z,12.13
2017-12-23T09:26:28.279Z,15.07
2017-12-23T09:28:55.855Z,17.23
2017-12-23T09:31:23.446Z,14.60
2017-12-23T09:33:51.022Z,11.80
2017-12-23T09:36:18.618Z,20.33
2017-12-23T09:38:46.993Z,20.10
2017-12-23T09:41:15.352Z,16.37
2017-12-23T09:43:43.698Z,12.23
2017-12-23T09:46:11.294Z,12.97
2017-12-23T09:48:39.635Z,13.50
2017-12-23T09:51:07.237Z,12.03
2017-12-23T09:53:36.209Z,14.37
2017-12-23T09:56:03.783Z,9.87
2017-12-23T09:58:32.150Z,9.00
2017-12-23T10:01:00.494Z,12.13
2017-12-23T10:03:28.086Z,10.47
2017-12-23T10:05:55.660Z,11.93
2017-12-23T10:08:24.026Z,10.50
2017-12-23T10:10:51.602Z,10.80
2017-12-23T10:13:19.965Z,15.20
2017-12-23T10:15:48.306Z,10.17
2017-12-23T10:18:15.935Z,15.23
2017-12-23T10:20:43.505Z,9.47
2017-12-23T10:23:11.098Z,8.30
2017-12-23T10:25:38.666Z,8.37
2017-12-23T10:28:06.265Z,9.83
2017-12-23T10:30:33.827Z,8.73
2017-12-23T10:33:01.419Z,8.40
2017-12-23T10:35:28.996Z,10.93
2017-12-23T10:37:56.592Z,9.87
2017-12-23T10:40:24.934Z,9.37
2017-12-23T10:42:52.536Z,10.60
2017-12-23T10:45:20.107Z,10.40
2017-12-23T10:47:47.711Z,10.17
2017-12-23T10:50:15.290Z,8.80
2017-12-23T10:52:42.889Z,13.23
2017-12-23T10:55:10.486Z,7.80
2017-12-23T10:57:38.079Z,8.30
2017-12-23T11:00:06.414Z,8.10
2017-12-23T11:02:34.017Z,10.27
2017-12-23T11:05:02.354Z,7.73
2017-12-23T11:07:31.154Z,9.70
2017-12-23T11:09:58.791Z,9.77
2017-12-23T11:12:26.410Z,7.90
2017-12-23T11:14:54.030Z,12.73
2017-12-23T11:17:21.619Z,9.63
2017-12-23T11:19:49.231Z,8.63
2017-12-23T11:22:16.807Z,8.03
2017-12-23T11:24:44.455Z,9.57
2017-12-23T11:27:11.998Z,9.90
2017-12-23T11:29:39.586Z,9.93
2017-12-23T11:32:07.179Z,7.37
2017-12-23T11:34:35.538Z,5.67
2017-12-23T11:37:03.117Z,7.53
2017-12-23T11:39:31.482Z,7.70
2017-12-23T11:41:59.826Z,8.10
2017-12-23T11:44:27.430Z,7.57
2017-12-23T11:46:55.771Z,5.70
2017-12-23T11:49:23.357Z,12.83
2017-12-23T11:51:51.709Z,7.87
2017-12-23T11:54:19.303Z,7.87
2017-12-23T11:56:46.878Z,12.17
2017-12-23T11:59:14.470Z,6.90
2017-12-23T12:01:42.041Z,8.27
2017-12-23T12:04:09.638Z,6.73
2017-12-23T12:06:37.970Z,8.40
2017-12-23T12:09:05.562Z,8.13
2017-12-23T12:11:33.902Z,10.60
2017-12-23T12:14:01.499Z,12.23
2017-12-23T12:16:29.070Z,10.33
2017-12-23T12:18:57.428Z,12.17
2017-12-23T12:21:25.002Z,12.57
2017-12-23T12:23:53.398Z,11.30
2017-12-23T12:26:20.972Z,12.70
2017-12-23T12:28:49.333Z,11.53
2017-12-23T12:31:16.934Z,11.73
2017-12-23T12:33:44.508Z,9.93
2017-12-23T12:36:12.103Z,8.90
2017-12-23T12:38:40.968Z,11.73
2017-12-23T12:41:09.044Z,9.07
2017-12-23T12:43:36.778Z,8.87
2017-12-23T12:46:05.956Z,9.70
2017-12-23T12:48:33.558Z,10.17
2017-12-23T12:51:01.164Z,11.13
2017-12-23T12:53:28.754Z,7.00
2017-12-23T12:55:56.362Z,9.10
2017-12-23T12:58:24.705Z,8.87
2017-12-23T13:00:52.303Z,9.57
2017-12-23T13:03:19.878Z,8.63
2017-12-23T13:05:47.473Z,6.70
2017-12-23T13:08:15.051Z,9.47
2017-12-23T13:10:42.642Z,8.63
2017-12-23T13:13:10.215Z,6.27
2017-12-23T13:15:37.811Z,11.03
2017-12-23T13:18:05.397Z,8.00
2017-12-23T13:20:33.018Z,6.60
2017-12-23T13:23:00.588Z,7.93
2017-12-23T13:25:28.181Z,9.87
2017-12-23T13:27:55.774Z,10.77
2017-12-23T13:30:23.378Z,7.30
2017-12-23T13:32:50.957Z,9.83
2017-12-23T13:35:19.323Z,8.33
2017-12-23T13:37:46.897Z,7.80
2017-12-23T13:40:15.276Z,9.13
2017-12-23T13:42:42.872Z,7.60
2017-12-23T13:45:10.452Z,7.50
2017-12-23T13:47:38.047Z,8.43
2017-12-23T13:50:06.387Z,6.77
2017-12-23T13:52:33.978Z,9.30
2017-12-23T13:55:01.562Z,6.47
2017-12-23T13:57:29.153Z,6.93
2017-12-23T13:59:56.714Z,9.23
2017-12-23T14:02:24.345Z,7.87
2017-12-23T14:04:54.304Z,8.67
2017-12-23T14:07:22.068Z,8.47
2017-12-23T14:09:49.638Z,9.43
2017-12-23T14:12:17.222Z,6.53
2017-12-23T14:14:44.800Z,10.60
2017-12-23T14:17:12.440Z,8.53
2017-12-23T14:19:40.006Z,8.20
2017-12-23T14:22:08.370Z,12.00
2017-12-23T14:24:35.963Z,10.60
2017-12-23T14:27:03.559Z,7.90
2017-12-23T14:29:31.126Z,12.27
2017-12-23T14:31:58.770Z,9.97
2017-12-23T14:34:26.338Z,9.77
2017-12-23T14:36:54.004Z,8.83
2017-12-23T14:39:21.578Z,10.63
2017-12-23T14:41:49.177Z,13.47
2017-12-23T14:44:16.746Z,11.53
2017-12-23T14:46:44.389Z,12.20
2017-12-23T14:49:11.976Z,11.50
2017-12-23T14:51:39.621Z,11.13
2017-12-23T14:54:07.248Z,14.30
2017-12-23T14:56:34.827Z,12.00
2017-12-23T14:59:03.187Z,13.67
2017-12-23T15:01:30.779Z,12.80
2017-12-23T15:03:58.370Z,11.63
2017-12-23T15:06:25.952Z,13.50
2017-12-23T15:08:53.552Z,12.47
2017-12-23T15:11:21.129Z,12.40
2017-12-23T15:13:48.723Z,15.20
2017-12-23T15:16:16.301Z,17.30
2017-12-23T15:18:43.948Z,12.70
2017-12-23T15:21:11.543Z,13.07
2017-12-23T15:23:39.143Z,13.00
2017-12-23T15:26:06.722Z,11.00
2017-12-23T15:28:34.323Z,13.27
2017-12-23T15:31:01.894Z,10.10
2017-12-23T15:33:29.486Z,11.70
2017-12-23T15:35:57.062Z,12.00
2017-12-23T15:38:24.730Z,9.13
2017-12-23T15:40:52.315Z,9.30
2017-12-23T15:43:19.913Z,15.03
2017-12-23T15:45:47.498Z,9.53
2017-12-23T15:48:17.083Z,12.20
2017-12-23T15:50:45.556Z,11.80
2017-12-23T15:53:15.187Z,12.17
2017-12-23T15:55:42.950Z,11.10
2017-12-23T15:58:12.794Z,10.30
2017-12-23T16:00:42.526Z,8.30
2017-12-23T16:03:10.123Z,13.63
2017-12-23T16:05:37.699Z,10.97
2017-12-23T16:08:05.299Z,13.47
2017-12-23T16:10:32.912Z,9.40
2017-12-23T16:13:00.515Z,10.00
2017-12-23T16:15:28.091Z,9.13
2017-12-23T16:17:55.667Z,9.13
2017-12-23T16:20:23.253Z,8.80
2017-12-23T16:22:50.867Z,10.07
2017-12-23T16:25:18.499Z,10.77
2017-12-23T16:27:46.826Z,9.40
2017-12-23T16:30:14.431Z,8.73
2017-12-23T16:32:42.003Z,7.90
2017-12-23T16:35:10.415Z,10.30
2017-12-23T16:37:38.024Z,6.47
2017-12-23T16:40:05.625Z,6.90
2017-12-23T16:42:33.199Z,6.80
2017-12-23T16:45:00.789Z,6.30
2017-12-23T16:47:28.377Z,16.80
2017-12-23T16:49:56.739Z,11.37
2017-12-23T16:52:24.308Z,8.07
2017-12-23T16:54:52.671Z,9.13
2017-12-23T16:57:23.785Z,8.70
2017-12-23T16:59:56.394Z,8.87
2017-12-23T17:05:00.554Z,7.97
2017-12-23T17:07:28.122Z,8.30
2017-12-23T17:09:55.715Z,9.70
2017-12-23T17:12:23.327Z,9.50
2017-12-23T17:14:50.919Z,8.83
2017-12-23T17:17:18.486Z,8.73
2017-12-23T17:19:46.074Z,8.00
2017-12-23T17:22:13.642Z,8.80
2017-12-23T17:24:41.235Z,8.83
2017-12-23T17:27:08.807Z,8.50
2017-12-23T17:29:48.120Z,7.90
